Oklahoma City, OK (73140)

10:57 AM CST on February 26, 2017 (GMT -0600)
Downtown | | Change Station

Elev 1220 ft 35.46 °N, 97.51 °W | Updated 4 seconds ago

Partly Cloudy
Partly Cloudy
48.8 °F
Feels Like 43 °F
N
14.0
Wind Variable Wind from South
Gusts 29.0 mph

Today
High -- | Low -- °F
--% Chance of Precip.
Yesterday
High -- | Low -- °F
Precip. -- in
Pressure 29.92 in
Visibility 10.0 miles
Clouds Scattered Clouds 16000 ft
Mostly Cloudy 18000 ft
Mostly Cloudy 20000 ft
Windchill 43 °F
Dew Point 30 °F
Humidity 49%
Rainfall 0.00 in
Snow Depth Not available.
7:03 AM 6:22 PM
New Moon, 0% visible
METAR KOKC 261652Z 18014KT 10SM SCT160 BKN180 BKN200 12/M01 A2991 RMK AO2 PK WND 18027/1625 SLP131 T01171011
Pressure 29.92 in
Visibility 10.0 miles
Clouds Scattered Clouds 16000 ft
Mostly Cloudy 18000 ft
Mostly Cloudy 20000 ft
Windchill 43 °F
Dew Point 30 °F
Humidity 49%
Rainfall 0.00 in
Snow Depth Not available.
7:03 AM 6:22 PM
New Moon, 0% visible
METAR KOKC 261652Z 18014KT 10SM SCT160 BKN180 BKN200 12/M01 A2991 RMK AO2 PK WND 18027/1625 SLP131 T01171011

Get Your Daily Forecast Email!

Thanks for signing up!

Be on the lookout for a verification email in your inbox.

You'll start receiving the daily forecast at 8 AM.

×

10-Day Weather Forecast

Almanac

Astronomy

Feb. 26, 2017 Rise Set
Actual Time
Civil Twilight
Nautical Twilight
Astronomical Twilight
Moon
Length of Visible Light
Length of Day
Tomorrow will be .
, % of the Moon is Illuminated

Today's Extremes

State Highs State Lows

Community

WunderPhotos

Upload Photos

1,962,540 photos uploaded!

WunderBlog® & News

Nearby

Air Quality

  Air Quality AQ Index Pollutant
Not available.

Snow Depth

Station Depth Elevation

Earthquake Activity

City Distance Mag. Time & Date
Minimum magnitude displayed is 2.5.

Coastal Water Temperatures

Place Temperature

Stations

Nearby Weather Stations

Station Location Temp. Windchill Dew Point Humidity Wind Precip. Elev Updated Type
                   

Watches & Warnings

There are currently no watches in effect.